Portada
METAR-TAF:

METAR-TAF

Aeropuertos :

Mécheria, Argelia

latitud: 34-56N, longitud: 000-26W, altitud: 1149 m

Observación

El informe se hizo hace 43 minutos, a las 08:00 UTC
Viento 12 kt del sur
Temperatura 30°C
Humedad 25%
Presión 1023 hPa
Visibilidad: 7000 m
Nubes dispersas a una altura de 3000 ft
Nubes dispersas a una altura de 10000 ft

METAR: DAAY 140800Z 19012KT 7000 SCT030 SCT100 30/08 Q1023

Hora: 09:43 (08:43 UTC)

Pronóstico

El informe se hizo hace 3 horas y 43 minutos, a las 05:00 UTC
Pronóstico válido del 14 a las 06 UTC al 14 a las 15 UTC
Viento 10 kt del suroeste
Visibilidad: 6000 m
Nubes dispersas a una altura de 3000 ft
Nubes dispersas a una altura de 10000 ft
Temporalmente
del 14 a las 06 UTC al 14 a las 10 UTC
Escasas nubes a una altura de 2600 ft, Cumulonimbus.

TAF: DAAY 140500Z 1406/1415 23010KT 6000 SCT030 SCT100 TEMPO 1406/1410 FEW026CB

Observaciones y pronósticos meteorológicos de más de 4000 aeropuertos (mensajes METAR y TAF).

Los puntos amarillos y rojos representan las estaciones disponibles.

Ponga el ratón en el punto deseado para ver el nombre de la estación.

Haga clic para ver las observaciones y los pronósticos meteorológicos.

Para cambiar el mapa : haga clic en los botones verdes con una cruz de color negro para hacer un zoom, en el botón verde con un guión para alejar o en las flechas verdes para mapas adyacentes.


METAR-TAF: